Terminal Aerodrome Forecast
Issued by NWS

Home | Current Version | Previous Version | Text Only | Print | Product List | Glossary On
Versions: 1 2 3 4 5 6 7 8 9 10 11 12 13
000
FTUS45 KTFX 230500
TAFGTF
TAF
KGTF 230520Z 2306/2406 22010KT P6SM FEW080 BKN150
     FM231100 21007KT P6SM SCT120
     FM231900 24014KT P6SM SCT080 BKN130
     FM240200 21009KT P6SM SCT090 BKN150=

USA.gov is the U.S. government's official web portal to all federal, state and local government web resources and services.